Time;durP1;ratioP1;P1;durP2;ratioP2;P2;SDS_P1;SDS_P2;PMS_P1;PMS_P2;Temp;Humidity;BMP_temperature;BMP_pressure;BME280_temperature;BME280_humidity;BME280_pressure;Samples;Min_cycle;Max_cycle;Signal;HPM_P1;HPM_P2
2022/06/09 00:04:24;;;;;;;;;;;;;;;;;;12643496;28;19931;-83
2022/06/09 00:10:26;;;;;;;;;;;;;;;;;;12608195;28;19915;-82
2022/06/09 00:16:28;;;;;;;;;;;;;;;;;;12608321;28;20368;-82
2022/06/09 00:22:29;;;;;;;;;;;;;;;;;;12625150;28;19915;-82
2022/06/09 00:28:31;;;;;;;;;;;;;;;;;;12608848;28;20368;-82
2022/06/09 00:34:32;;;;;;;;;;;;;;;;;;12613124;28;19924;-81
2022/06/09 00:40:34;;;;;;;;;;;;;;;;;;12617254;28;19908;-81
2022/06/09 00:46:35;;;;;;;;;;;;;;;;;;12632926;28;19912;-82
2022/06/09 00:52:37;;;;;;;;;;;;;;;;;;12650918;28;19920;-82
2022/06/09 00:58:38;;;;;;;;;;;;;;;;;;12616127;28;20304;-82
2022/06/09 01:04:40;;;;;;;;;;;;;;;;;;12632778;28;19908;-82
2022/06/09 01:10:41;;;;;;;;;;;;;;;;;;12632197;28;19915;-81
2022/06/09 01:16:43;;;;;;;;;;;;;;;;;;12632098;28;19924;-81
2022/06/09 01:22:44;;;;;;;;;;;;;;;;;;12631275;28;19907;-81
2022/06/09 01:28:46;;;;;;;;;;;;;;;;;;12614571;28;19908;-81
2022/06/09 01:34:48;;;;;;;;;;;;;;;;;;12630868;28;19923;-81
2022/06/09 01:40:49;;;;;;;;;;;;;;;;;;12630627;28;20368;-81
2022/06/09 01:46:51;;;;;;;;;;;;;;;;;;12629479;28;19919;-81
2022/06/09 01:52:52;;;;;;;;;;;;;;;;;;12613363;28;19916;-81
2022/06/09 01:58:54;;;;;;;;;;;;;;;;;;12629843;28;19908;-81
2022/06/09 02:04:56;;;;;;;;;;;;;;;;;;12612685;28;19908;-81
2022/06/09 02:10:57;;;;;;;;;;;;;;;;;;12629007;28;19915;-81
2022/06/09 02:16:59;;;;;;;;;;;;;;;;;;12629083;28;19927;-81
2022/06/09 02:23:00;;;;;;;;;;;;;;;;;;12612100;28;20291;-81
2022/06/09 02:29:02;;;;;;;;;;;;;;;;;;12646393;28;19908;-82
2022/06/09 02:35:03;;;;;;;;;;;;;;;;;;12627987;28;19915;-82
2022/06/09 02:41:05;;;;;;;;;;;;;;;;;;12627924;28;19915;-82
2022/06/09 02:47:06;;;;;;;;;;;;;;;;;;12627619;28;19919;-82
2022/06/09 02:53:08;;;;;;;;;;;;;;;;;;12627106;28;19920;-82
2022/06/09 02:59:09;;;;;;;;;;;;;;;;;;12644791;28;20276;-82
2022/06/09 03:05:11;;;;;;;;;;;;;;;;;;12644835;28;19908;-82
2022/06/09 03:11:12;;;;;;;;;;;;;;;;;;12610483;28;19915;-82
2022/06/09 03:17:14;;;;;;;;;;;;;;;;;;12594358;28;20399;-83
2022/06/09 03:23:15;;;;;;;;;;;;;;;;;;12593669;28;20284;-83
2022/06/09 03:29:19;;;;;;;;;;;;;;;;;;12592685;28;20357;-83
2022/06/09 03:35:21;;;;;;;;;;;;;;;;;;12575940;28;19916;-82
2022/06/09 03:41:22;;;;;;;;;;;;;;;;;;12576141;28;19979;-82
2022/06/09 03:47:24;;;;;;;;;;;;;;;;;;12593650;28;19916;-82
2022/06/09 03:53:26;;;;;;;;;;;;;;;;;;12593472;28;19916;-82
2022/06/09 03:59:27;;;;;;;;;;;;;;;;;;12592153;28;19909;-82
2022/06/09 04:05:28;;;;;;;;;;;;;;;;;;12593068;28;19923;-82
2022/06/09 04:11:30;;;;;;;;;;;;;;;;;;12601273;28;19912;-82
2022/06/09 04:17:31;;;;;;;;;;;;;;;;;;12584306;28;19920;-82
2022/06/09 04:23:33;;;;;;;;;;;;;;;;;;12601179;28;19919;-81
2022/06/09 04:29:35;;;;;;;;;;;;;;;;;;12601555;28;19939;-81
2022/06/09 04:35:36;;;;;;;;;;;;;;;;;;12599987;28;20316;-81
2022/06/09 04:41:38;;;;;;;;;;;;;;;;;;12600251;28;19915;-81
2022/06/09 04:47:39;;;;;;;;;;;;;;;;;;12600893;28;19912;-80
2022/06/09 04:53:41;;;;;;;;;;;;;;;;;;12600609;28;19923;-80
2022/06/09 04:59:42;;;;;;;;;;;;;;;;;;12582701;28;20261;-80
2022/06/09 05:05:44;;;;;;;;;;;;;;;;;;12599141;28;19931;-80
2022/06/09 05:11:45;;;;;;;;;;;;;;;;;;12600073;28;20289;-80
2022/06/09 05:17:47;;;;;;;;;;;;;;;;;;12598873;28;19920;-81
2022/06/09 05:23:48;;;;;;;;;;;;;;;;;;12599850;28;19908;-81
2022/06/09 05:29:49;;;;;;;;;;;;;;;;;;12581108;28;19908;-84
2022/06/09 05:35:51;;;;;;;;;;;;;;;;;;12597739;28;19917;-83
2022/06/09 05:48:13;;;;;;;;;;;;;;;;;;12596071;28;19912;-83
2022/06/09 05:54:14;;;;;;;;;;;;;;;;;;12599074;28;19953;-83
2022/06/09 06:00:16;;;;;;;;;;;;;;;;;;12596960;28;20281;-83
2022/06/09 06:06:33;;;;;;;;;;;;;;;;;;12595410;28;19916;-85
2022/06/09 06:12:35;;;;;;;;;;;;;;;;;;12595025;28;19917;-84
2022/06/09 06:18:36;;;;;;;;;;;;;;;;;;12596124;28;19920;-84
2022/06/09 06:24:38;;;;;;;;;;;;;;;;;;12594497;28;20357;-85
2022/06/09 06:30:39;;;;;;;;;;;;;;;;;;12594340;28;20292;-84
2022/06/09 06:36:41;;;;;;;;;;;;;;;;;;12595224;28;19917;-83
2022/06/09 06:42:42;;;;;;;;;;;;;;;;;;12594499;28;19915;-85
2022/06/09 06:48:44;;;;;;;;;;;;;;;;;;12591532;28;19927;-82
2022/06/09 06:54:45;;;;;;;;;;;;;;;;;;12593442;28;20369;-82
2022/06/09 07:00:47;;;;;;;;;;;;;;;;;;12576800;28;19915;-87
2022/06/09 07:07:06;;;;;;;;;;;;;;;;;;12593783;28;19909;-83
2022/06/09 07:13:07;;;;;;;;;;;;;;;;;;12593775;28;20071;-82
2022/06/09 07:19:09;;;;;;;;;;;;;;;;;;12592954;28;19912;-81
2022/06/09 07:25:10;;;;;;;;;;;;;;;;;;12576343;28;20384;-80
2022/06/09 07:31:11;;;;;;;;;;;;;;;;;;12594622;28;19909;-80
2022/06/09 07:37:17;;;;;;;;;;;;;;;;;;12594066;28;19939;-80
2022/06/09 07:43:19;;;;;;;;;;;;;;;;;;12598056;28;19908;-79
2022/06/09 07:49:20;;;;;;;;;;;;;;;;;;12602223;28;19912;-82
2022/06/09 07:55:22;;;;;;;;;;;;;;;;;;12583807;28;19927;-83
2022/06/09 08:01:24;;;;;;;;;;;;;;;;;;12604159;28;19916;-80
2022/06/09 08:07:26;;;;;;;;;;;;;;;;;;12601965;28;19915;-82
2022/06/09 08:13:28;;;;;;;;;;;;;;;;;;12604091;28;20283;-81
2022/06/09 08:19:29;;;;;;;;;;;;;;;;;;12653369;28;19919;-80
2022/06/09 08:25:31;;;;;;;;;;;;;;;;;;12636037;28;19908;-81
2022/06/09 08:31:32;;;;;;;;;;;;;;;;;;12652397;28;19908;-80
2022/06/09 08:37:34;;;;;;;;;;;;;;;;;;12634140;28;19919;-80
2022/06/09 08:43:35;;;;;;;;;;;;;;;;;;12634141;28;20268;-80
2022/06/09 08:49:37;;;;;;;;;;;;;;;;;;12634029;28;19922;-81
2022/06/09 08:55:38;;;;;;;;;;;;;;;;;;12632748;28;19961;-80
2022/06/09 09:01:40;;;;;;;;;;;;;;;;;;12632379;28;19908;-80
2022/06/09 09:07:41;;;;;;;;;;;;;;;;;;12649730;28;19931;-81
2022/06/09 09:13:43;;;;;;;;;;;;;;;;;;12632155;28;19916;-80
2022/06/09 09:19:44;;;;;;;;;;;;;;;;;;12632195;28;20403;-81
2022/06/09 09:25:46;;;;;;;;;;;;;;;;;;12649275;28;19915;-80
2022/06/09 09:31:47;;;;;;;;;;;;;;;;;;12648214;28;19915;-79
2022/06/09 09:37:49;;;;;;;;;;;;;;;;;;12630665;28;19916;-79
2022/06/09 09:43:50;;;;;;;;;;;;;;;;;;12648065;28;19915;-79
2022/06/09 09:49:52;;;;;;;;;;;;;;;;;;12642319;28;19912;-80
2022/06/09 09:55:54;;;;;;;;;;;;;;;;;;12647760;28;19920;-79
2022/06/09 10:14:37;;;;;;;;;;;;;;;;;;12647061;28;19948;-81
2022/06/09 10:20:38;;;;;;;;;;;;;;;;;;12629449;28;20361;-82
2022/06/09 10:26:39;;;;;;;;;;;;;;;;;;12628532;28;19908;-80
2022/06/09 10:32:41;;;;;;;;;;;;;;;;;;12628383;28;20383;-80
2022/06/09 10:38:43;;;;;;;;;;;;;;;;;;12647511;28;19938;-81
2022/06/09 10:44:44;;;;;;;;;;;;;;;;;;12644441;28;19912;-80
2022/06/09 10:57:06;;;;;;;;;;;;;;;;;;12644879;28;19918;-80
2022/06/09 11:03:08;;;;;;;;;;;;;;;;;;12645096;28;19912;-80
2022/06/09 11:09:10;;;;;;;;;;;;;;;;;;12644571;28;19908;-80
2022/06/09 11:15:11;;;;;;;;;;;;;;;;;;12643511;28;19916;-80
2022/06/09 11:21:15;;;;;;;;;;;;;;;;;;12625964;28;19912;-80
2022/06/09 11:27:16;;;;;;;;;;;;;;;;;;12644352;28;20276;-80
2022/06/09 11:33:17;;;;;;;;;;;;;;;;;;12644103;28;19915;-80
2022/06/09 11:39:20;;;;;;;;;;;;;;;;;;12625985;28;19908;-81
2022/06/09 11:45:22;;;;;;;;;;;;;;;;;;12643941;28;20360;-80
2022/06/09 11:51:23;;;;;;;;;;;;;;;;;;12643678;28;19912;-81
2022/06/09 11:57:25;;;;;;;;;;;;;;;;;;12625488;28;19916;-81
2022/06/09 12:03:27;;;;;;;;;;;;;;;;;;12626538;28;20391;-81
2022/06/09 12:09:30;;;;;;;;;;;;;;;;;;12645999;28;20292;-80
2022/06/09 12:15:32;;;;;;;;;;;;;;;;;;12642199;28;19916;-81
2022/06/09 12:21:33;;;;;;;;;;;;;;;;;;12624942;28;20353;-80
2022/06/09 12:27:35;;;;;;;;;;;;;;;;;;12625264;28;19915;-81
2022/06/09 12:33:37;;;;;;;;;;;;;;;;;;12633800;28;19920;-81
2022/06/09 12:39:38;;;;;;;;;;;;;;;;;;12651787;28;19908;-81
2022/06/09 12:45:40;;;;;;;;;;;;;;;;;;12651625;28;19908;-81
2022/06/09 12:51:41;;;;;;;;;;;;;;;;;;12649978;28;19919;-81
2022/06/09 12:57:43;;;;;;;;;;;;;;;;;;12650719;28;19923;-81
2022/06/09 13:03:44;;;;;;;;;;;;;;;;;;12649297;28;19916;-80
2022/06/09 13:09:46;;;;;;;;;;;;;;;;;;12649854;28;19931;-80
2022/06/09 13:15:49;;;;;;;;;;;;;;;;;;12649405;28;19916;-80
2022/06/09 13:21:51;;;;;;;;;;;;;;;;;;12648587;28;19912;-80
2022/06/09 13:27:52;;;;;;;;;;;;;;;;;;12631439;28;19907;-81
2022/06/09 13:33:54;;;;;;;;;;;;;;;;;;12649110;28;19916;-80
2022/06/09 13:39:55;;;;;;;;;;;;;;;;;;12647408;28;20368;-80
2022/06/09 13:45:57;;;;;;;;;;;;;;;;;;12631176;28;19908;-80
2022/06/09 13:51:58;;;;;;;;;;;;;;;;;;12630236;28;20331;-81
2022/06/09 13:58:00;;;;;;;;;;;;;;;;;;12647957;28;19915;-80
2022/06/09 14:04:01;;;;;;;;;;;;;;;;;;12646729;28;19908;-81
2022/06/09 14:10:03;;;;;;;;;;;;;;;;;;12629407;28;20352;-80
2022/06/09 14:16:05;;;;;;;;;;;;;;;;;;12646299;28;19916;-81
2022/06/09 14:22:07;;;;;;;;;;;;;;;;;;12629574;28;19912;-81
2022/06/09 14:28:11;;;;;;;;;;;;;;;;;;12646602;28;20357;-81
2022/06/09 14:34:12;;;;;;;;;;;;;;;;;;12628715;28;19916;-81
2022/06/09 14:40:14;;;;;;;;;;;;;;;;;;12646570;28;20387;-80
2022/06/09 14:46:15;;;;;;;;;;;;;;;;;;12647172;28;19908;-80
2022/06/09 14:52:17;;;;;;;;;;;;;;;;;;12627209;28;19912;-83
2022/06/09 14:58:18;;;;;;;;;;;;;;;;;;12645356;28;19916;-84
2022/06/09 15:04:20;;;;;;;;;;;;;;;;;;12626918;28;19908;-83
2022/06/09 15:10:22;;;;;;;;;;;;;;;;;;12645157;28;19915;-84
2022/06/09 15:16:26;;;;;;;;;;;;;;;;;;12626835;28;19920;-81
2022/06/09 15:22:28;;;;;;;;;;;;;;;;;;12626480;28;20284;-83
2022/06/09 15:28:29;;;;;;;;;;;;;;;;;;12644514;28;20392;-83
2022/06/09 15:34:31;;;;;;;;;;;;;;;;;;12626272;28;19923;-83
2022/06/09 15:40:33;;;;;;;;;;;;;;;;;;12644131;28;19908;-83
2022/06/09 15:46:34;;;;;;;;;;;;;;;;;;12642759;28;19924;-83
2022/06/09 15:52:36;;;;;;;;;;;;;;;;;;12642678;28;19909;-83
2022/06/09 15:58:37;;;;;;;;;;;;;;;;;;12643589;28;19989;-83
2022/06/09 16:04:39;;;;;;;;;;;;;;;;;;12629436;28;19915;-82
2022/06/09 16:10:40;;;;;;;;;;;;;;;;;;12652874;28;20159;-82
2022/06/09 16:16:42;;;;;;;;;;;;;;;;;;12634900;28;19920;-82
2022/06/09 16:22:43;;;;;;;;;;;;;;;;;;12652450;28;19912;-81
2022/06/09 16:28:45;;;;;;;;;;;;;;;;;;12652744;28;19912;-82
2022/06/09 16:34:47;;;;;;;;;;;;;;;;;;12651232;28;19923;-82
2022/06/09 16:40:48;;;;;;;;;;;;;;;;;;12651897;28;19908;-82
2022/06/09 16:46:50;;;;;;;;;;;;;;;;;;12653565;28;19920;-82
2022/06/09 16:52:52;;;;;;;;;;;;;;;;;;12652080;28;19917;-82
2022/06/09 16:58:53;;;;;;;;;;;;;;;;;;12636905;28;19916;-82
2022/06/09 17:04:55;;;;;;;;;;;;;;;;;;12635508;28;19918;-82
2022/06/09 17:10:56;;;;;;;;;;;;;;;;;;12650451;28;19908;-82
2022/06/09 17:16:58;;;;;;;;;;;;;;;;;;12650003;28;19920;-82
2022/06/09 17:22:59;;;;;;;;;;;;;;;;;;12649783;28;19908;-84
2022/06/09 17:29:01;;;;;;;;;;;;;;;;;;12650375;28;20368;-82
2022/06/09 17:35:02;;;;;;;;;;;;;;;;;;12647810;28;19923;-82
2022/06/09 17:41:04;;;;;;;;;;;;;;;;;;12648260;28;20241;-82
2022/06/09 17:47:05;;;;;;;;;;;;;;;;;;12647472;28;19949;-82
2022/06/09 17:53:07;;;;;;;;;;;;;;;;;;12630302;28;19908;-82
2022/06/09 17:59:08;;;;;;;;;;;;;;;;;;12647999;28;19919;-82
2022/06/09 18:05:10;;;;;;;;;;;;;;;;;;12647564;28;19931;-82
2022/06/09 18:11:11;;;;;;;;;;;;;;;;;;12629639;28;19915;-82
2022/06/09 18:17:16;;;;;;;;;;;;;;;;;;12629545;28;19927;-82
2022/06/09 18:23:17;;;;;;;;;;;;;;;;;;12647976;28;19908;-82
2022/06/09 18:29:19;;;;;;;;;;;;;;;;;;12627956;28;19908;-82
2022/06/09 18:35:21;;;;;;;;;;;;;;;;;;12628084;28;19916;-83
2022/06/09 18:41:23;;;;;;;;;;;;;;;;;;12628351;28;20387;-82
2022/06/09 18:47:28;;;;;;;;;;;;;;;;;;12645616;28;20369;-82
2022/06/09 18:53:31;;;;;;;;;;;;;;;;;;12627773;28;19908;-83
2022/06/09 18:59:33;;;;;;;;;;;;;;;;;;12644129;28;20399;-83
2022/06/09 19:05:35;;;;;;;;;;;;;;;;;;12626978;28;19919;-83
2022/06/09 19:11:36;;;;;;;;;;;;;;;;;;12626689;28;19916;-83
2022/06/09 19:17:38;;;;;;;;;;;;;;;;;;12642999;28;19920;-83
2022/06/09 19:23:43;;;;;;;;;;;;;;;;;;12644419;28;19915;-83
2022/06/09 19:29:45;;;;;;;;;;;;;;;;;;12644348;28;19916;-83
2022/06/09 19:35:46;;;;;;;;;;;;;;;;;;12625603;28;20281;-83
2022/06/09 19:41:49;;;;;;;;;;;;;;;;;;12636359;28;20352;-82
2022/06/09 19:47:50;;;;;;;;;;;;;;;;;;12652997;28;19912;-82
2022/06/09 19:53:56;;;;;;;;;;;;;;;;;;12654271;28;19915;-83
2022/06/09 19:59:58;;;;;;;;;;;;;;;;;;12635687;28;19919;-82
2022/06/09 20:06:00;;;;;;;;;;;;;;;;;;12635625;28;19915;-82
2022/06/09 20:12:02;;;;;;;;;;;;;;;;;;12634980;28;19916;-82
2022/06/09 20:18:04;;;;;;;;;;;;;;;;;;12635201;28;19927;-82
2022/06/09 20:24:05;;;;;;;;;;;;;;;;;;12653183;28;19912;-82
2022/06/09 20:30:07;;;;;;;;;;;;;;;;;;12651068;28;19907;-82
2022/06/09 20:36:09;;;;;;;;;;;;;;;;;;12650797;28;19920;-82
2022/06/09 20:42:11;;;;;;;;;;;;;;;;;;12634498;28;20272;-82
2022/06/09 20:48:12;;;;;;;;;;;;;;;;;;12649601;28;19920;-82
2022/06/09 20:54:14;;;;;;;;;;;;;;;;;;12651022;28;19916;-83
2022/06/09 21:00:16;;;;;;;;;;;;;;;;;;12649934;28;19919;-82
2022/06/09 21:06:17;;;;;;;;;;;;;;;;;;12649619;28;19908;-82
2022/06/09 21:18:39;;;;;;;;;;;;;;;;;;12632285;28;19919;-82
2022/06/09 21:24:40;;;;;;;;;;;;;;;;;;12631663;28;19908;-82
2022/06/09 21:30:42;;;;;;;;;;;;;;;;;;12649673;28;19908;-82
2022/06/09 21:36:43;;;;;;;;;;;;;;;;;;12649450;28;19916;-82
2022/06/09 21:42:45;;;;;;;;;;;;;;;;;;12649867;28;20213;-82
2022/06/09 21:48:47;;;;;;;;;;;;;;;;;;12630932;28;19912;-82
2022/06/09 21:54:48;;;;;;;;;;;;;;;;;;12647059;28;20376;-82
2022/06/09 22:00:51;;;;;;;;;;;;;;;;;;12629813;28;20264;-82
2022/06/09 22:06:53;;;;;;;;;;;;;;;;;;12629995;28;19907;-82
2022/06/09 22:12:55;;;;;;;;;;;;;;;;;;12647946;28;19950;-82
2022/06/09 22:18:56;;;;;;;;;;;;;;;;;;12645825;28;20261;-82
2022/06/09 22:24:57;;;;;;;;;;;;;;;;;;12628754;28;19907;-82
2022/06/09 22:30:59;;;;;;;;;;;;;;;;;;12646991;28;19908;-82
2022/06/09 22:37:00;;;;;;;;;;;;;;;;;;12646369;28;19916;-81
2022/06/09 22:43:04;;;;;;;;;;;;;;;;;;12647213;28;19908;-83
2022/06/09 22:49:05;;;;;;;;;;;;;;;;;;12646354;28;19916;-82
2022/06/09 23:01:27;;;;;;;;;;;;;;;;;;12627396;28;20280;-82
2022/06/09 23:07:29;;;;;;;;;;;;;;;;;;12644306;28;19923;-82
2022/06/09 23:13:30;;;;;;;;;;;;;;;;;;12644772;28;19920;-82
2022/06/09 23:19:33;;;;;;;;;;;;;;;;;;12643548;28;19920;-83
2022/06/09 23:25:34;;;;;;;;;;;;;;;;;;12626504;28;20395;-83
2022/06/09 23:31:36;;;;;;;;;;;;;;;;;;12644398;28;19918;-83
2022/06/09 23:37:37;;;;;;;;;;;;;;;;;;12644415;28;19916;-83
2022/06/09 23:43:39;;;;;;;;;;;;;;;;;;12627359;28;20272;-83
2022/06/09 23:49:40;;;;;;;;;;;;;;;;;;12625997;28;19919;-82
2022/06/09 23:55:42;;;;;;;;;;;;;;;;;;12626027;28;19916;-83
